sensor_id;sensor_type;location;lat;lon;timestamp;P1;durP1;ratioP1;P2;durP2;ratioP2
35239;SDS011;21376;50.954;4.716;2022-08-30T00:01:13;11.38;;;5.53;;
35239;SDS011;21376;50.954;4.716;2022-08-30T00:03:46;10.88;;;5.40;;
35239;SDS011;21376;50.954;4.716;2022-08-30T00:06:16;13.00;;;6.00;;
35239;SDS011;21376;50.954;4.716;2022-08-30T00:08:46;11.18;;;6.18;;
35239;SDS011;21376;50.954;4.716;2022-08-30T00:11:16;13.63;;;6.47;;
35239;SDS011;21376;50.954;4.716;2022-08-30T00:13:49;15.65;;;6.00;;
35239;SDS011;21376;50.954;4.716;2022-08-30T00:16:16;12.70;;;6.35;;
35239;SDS011;21376;50.954;4.716;2022-08-30T00:18:44;17.05;;;6.50;;
35239;SDS011;21376;50.954;4.716;2022-08-30T00:21:11;19.15;;;6.13;;
35239;SDS011;21376;50.954;4.716;2022-08-30T00:23:38;17.05;;;6.70;;
35239;SDS011;21376;50.954;4.716;2022-08-30T00:26:10;10.73;;;6.30;;
35239;SDS011;21376;50.954;4.716;2022-08-30T00:28:36;16.50;;;7.25;;
35239;SDS011;21376;50.954;4.716;2022-08-30T00:33:34;10.27;;;7.13;;
35239;SDS011;21376;50.954;4.716;2022-08-30T00:36:06;16.60;;;7.13;;
35239;SDS011;21376;50.954;4.716;2022-08-30T00:38:32;14.25;;;7.47;;
35239;SDS011;21376;50.954;4.716;2022-08-30T00:43:31;11.95;;;6.93;;
35239;SDS011;21376;50.954;4.716;2022-08-30T00:46:03;11.93;;;6.63;;
35239;SDS011;21376;50.954;4.716;2022-08-30T00:48:36;11.55;;;6.43;;
35239;SDS011;21376;50.954;4.716;2022-08-30T00:56:41;16.50;;;7.18;;
35239;SDS011;21376;50.954;4.716;2022-08-30T01:01:39;11.23;;;6.65;;
35239;SDS011;21376;50.954;4.716;2022-08-30T01:06:38;14.95;;;6.82;;
35239;SDS011;21376;50.954;4.716;2022-08-30T01:11:35;13.25;;;7.32;;
35239;SDS011;21376;50.954;4.716;2022-08-30T01:16:34;13.57;;;7.47;;
35239;SDS011;21376;50.954;4.716;2022-08-30T01:19:03;16.33;;;8.00;;
35239;SDS011;21376;50.954;4.716;2022-08-30T01:21:41;16.15;;;8.07;;
35239;SDS011;21376;50.954;4.716;2022-08-30T01:24:18;14.68;;;8.30;;
35239;SDS011;21376;50.954;4.716;2022-08-30T01:26:47;13.57;;;7.47;;
35239;SDS011;21376;50.954;4.716;2022-08-30T01:29:17;16.02;;;8.18;;
35239;SDS011;21376;50.954;4.716;2022-08-30T01:35:02;16.27;;;9.52;;
35239;SDS011;21376;50.954;4.716;2022-08-30T01:37:42;17.83;;;8.23;;
35239;SDS011;21376;50.954;4.716;2022-08-30T01:45:07;15.63;;;8.02;;
35239;SDS011;21376;50.954;4.716;2022-08-30T01:47:36;15.52;;;8.20;;
35239;SDS011;21376;50.954;4.716;2022-08-30T01:50:03;16.00;;;8.77;;
35239;SDS011;21376;50.954;4.716;2022-08-30T01:52:36;16.02;;;7.97;;
35239;SDS011;21376;50.954;4.716;2022-08-30T01:55:02;16.83;;;8.68;;
35239;SDS011;21376;50.954;4.716;2022-08-30T01:57:37;17.65;;;9.13;;
35239;SDS011;21376;50.954;4.716;2022-08-30T02:02:35;17.52;;;8.55;;
35239;SDS011;21376;50.954;4.716;2022-08-30T02:07:34;16.63;;;8.70;;
35239;SDS011;21376;50.954;4.716;2022-08-30T02:12:32;13.18;;;8.45;;
35239;SDS011;21376;50.954;4.716;2022-08-30T02:15:00;15.82;;;8.40;;
35239;SDS011;21376;50.954;4.716;2022-08-30T02:17:44;19.77;;;8.98;;
35239;SDS011;21376;50.954;4.716;2022-08-30T02:22:42;15.80;;;8.27;;
35239;SDS011;21376;50.954;4.716;2022-08-30T02:25:14;13.15;;;8.02;;
35239;SDS011;21376;50.954;4.716;2022-08-30T02:35:13;21.35;;;10.05;;
35239;SDS011;21376;50.954;4.716;2022-08-30T02:37:41;14.18;;;9.98;;
35239;SDS011;21376;50.954;4.716;2022-08-30T02:40:13;15.55;;;10.43;;
35239;SDS011;21376;50.954;4.716;2022-08-30T02:45:14;20.75;;;10.18;;
35239;SDS011;21376;50.954;4.716;2022-08-30T02:47:41;18.98;;;10.27;;
35239;SDS011;21376;50.954;4.716;2022-08-30T02:55:59;15.63;;;9.98;;
35239;SDS011;21376;50.954;4.716;2022-08-30T02:58:26;21.15;;;11.40;;
35239;SDS011;21376;50.954;4.716;2022-08-30T03:00:51;16.75;;;10.20;;
35239;SDS011;21376;50.954;4.716;2022-08-30T03:03:21;27.42;;;11.38;;
35239;SDS011;21376;50.954;4.716;2022-08-30T03:05:50;23.50;;;11.43;;
35239;SDS011;21376;50.954;4.716;2022-08-30T03:16:21;20.40;;;11.27;;
35239;SDS011;21376;50.954;4.716;2022-08-30T03:18:48;18.80;;;9.95;;
35239;SDS011;21376;50.954;4.716;2022-08-30T03:21:26;26.35;;;10.75;;
35239;SDS011;21376;50.954;4.716;2022-08-30T03:23:53;19.00;;;10.13;;
35239;SDS011;21376;50.954;4.716;2022-08-30T03:26:19;16.77;;;9.65;;
35239;SDS011;21376;50.954;4.716;2022-08-30T03:28:48;18.83;;;10.40;;
35239;SDS011;21376;50.954;4.716;2022-08-30T03:33:46;17.63;;;9.93;;
35239;SDS011;21376;50.954;4.716;2022-08-30T03:36:18;22.00;;;10.05;;
35239;SDS011;21376;50.954;4.716;2022-08-30T03:38:44;15.88;;;9.80;;
35239;SDS011;21376;50.954;4.716;2022-08-30T03:44:21;24.83;;;10.88;;
35239;SDS011;21376;50.954;4.716;2022-08-30T03:52:57;21.52;;;10.98;;
35239;SDS011;21376;50.954;4.716;2022-08-30T04:00:51;18.17;;;11.52;;
35239;SDS011;21376;50.954;4.716;2022-08-30T04:05:56;23.05;;;11.02;;
35239;SDS011;21376;50.954;4.716;2022-08-30T04:11:15;20.30;;;11.93;;
35239;SDS011;21376;50.954;4.716;2022-08-30T04:16:14;20.00;;;11.07;;
35239;SDS011;21376;50.954;4.716;2022-08-30T04:18:39;21.27;;;11.50;;
35239;SDS011;21376;50.954;4.716;2022-08-30T04:21:10;19.30;;;11.48;;
35239;SDS011;21376;50.954;4.716;2022-08-30T04:23:39;16.98;;;11.15;;
35239;SDS011;21376;50.954;4.716;2022-08-30T04:26:09;18.30;;;11.43;;
35239;SDS011;21376;50.954;4.716;2022-08-30T04:28:38;21.52;;;12.40;;
35239;SDS011;21376;50.954;4.716;2022-08-30T04:31:08;22.63;;;12.90;;
35239;SDS011;21376;50.954;4.716;2022-08-30T04:33:39;20.52;;;11.77;;
35239;SDS011;21376;50.954;4.716;2022-08-30T04:38:38;19.60;;;11.57;;
35239;SDS011;21376;50.954;4.716;2022-08-30T04:41:13;20.58;;;11.23;;
35239;SDS011;21376;50.954;4.716;2022-08-30T04:43:42;24.05;;;13.07;;
35239;SDS011;21376;50.954;4.716;2022-08-30T04:46:12;21.15;;;13.30;;
35239;SDS011;21376;50.954;4.716;2022-08-30T04:48:38;22.00;;;12.57;;
35239;SDS011;21376;50.954;4.716;2022-08-30T04:51:08;17.88;;;11.77;;
35239;SDS011;21376;50.954;4.716;2022-08-30T04:56:13;14.80;;;10.85;;
35239;SDS011;21376;50.954;4.716;2022-08-30T04:58:51;19.77;;;12.18;;
35239;SDS011;21376;50.954;4.716;2022-08-30T05:01:19;19.55;;;12.82;;
35239;SDS011;21376;50.954;4.716;2022-08-30T05:03:52;21.02;;;12.35;;
35239;SDS011;21376;50.954;4.716;2022-08-30T05:08:49;25.75;;;13.60;;
35239;SDS011;21376;50.954;4.716;2022-08-30T05:11:22;20.98;;;13.75;;
35239;SDS011;21376;50.954;4.716;2022-08-30T05:13:48;25.27;;;14.35;;
35239;SDS011;21376;50.954;4.716;2022-08-30T05:16:14;24.02;;;14.75;;
35239;SDS011;21376;50.954;4.716;2022-08-30T05:18:51;21.85;;;14.75;;
35239;SDS011;21376;50.954;4.716;2022-08-30T05:21:20;20.10;;;12.65;;
35239;SDS011;21376;50.954;4.716;2022-08-30T05:23:48;18.05;;;11.25;;
35239;SDS011;21376;50.954;4.716;2022-08-30T05:26:21;17.95;;;11.98;;
35239;SDS011;21376;50.954;4.716;2022-08-30T05:28:53;20.92;;;13.25;;
35239;SDS011;21376;50.954;4.716;2022-08-30T05:31:25;21.77;;;13.48;;
35239;SDS011;21376;50.954;4.716;2022-08-30T05:33:54;21.25;;;12.63;;
35239;SDS011;21376;50.954;4.716;2022-08-30T05:38:51;26.77;;;14.35;;
35239;SDS011;21376;50.954;4.716;2022-08-30T05:41:18;20.45;;;13.77;;
35239;SDS011;21376;50.954;4.716;2022-08-30T05:43:46;20.65;;;12.77;;
35239;SDS011;21376;50.954;4.716;2022-08-30T05:46:15;18.00;;;12.65;;
35239;SDS011;21376;50.954;4.716;2022-08-30T05:48:43;24.00;;;13.88;;
35239;SDS011;21376;50.954;4.716;2022-08-30T05:51:14;21.63;;;12.45;;
35239;SDS011;21376;50.954;4.716;2022-08-30T05:53:48;20.33;;;11.52;;
35239;SDS011;21376;50.954;4.716;2022-08-30T05:56:16;19.25;;;12.25;;
35239;SDS011;21376;50.954;4.716;2022-08-30T05:58:46;21.05;;;11.20;;
35239;SDS011;21376;50.954;4.716;2022-08-30T06:03:55;17.35;;;11.18;;
35239;SDS011;21376;50.954;4.716;2022-08-30T06:06:24;14.85;;;10.55;;
35239;SDS011;21376;50.954;4.716;2022-08-30T06:08:51;21.10;;;11.65;;
35239;SDS011;21376;50.954;4.716;2022-08-30T06:11:18;17.73;;;11.27;;
35239;SDS011;21376;50.954;4.716;2022-08-30T06:13:45;20.80;;;10.93;;
35239;SDS011;21376;50.954;4.716;2022-08-30T06:16:16;16.15;;;10.77;;
35239;SDS011;21376;50.954;4.716;2022-08-30T06:18:47;15.02;;;10.50;;
35239;SDS011;21376;50.954;4.716;2022-08-30T06:21:31;19.55;;;10.23;;
35239;SDS011;21376;50.954;4.716;2022-08-30T06:23:59;21.30;;;10.88;;
35239;SDS011;21376;50.954;4.716;2022-08-30T06:26:26;18.15;;;10.23;;
35239;SDS011;21376;50.954;4.716;2022-08-30T06:28:54;15.65;;;10.30;;
35239;SDS011;21376;50.954;4.716;2022-08-30T06:31:21;17.40;;;9.95;;
35239;SDS011;21376;50.954;4.716;2022-08-30T06:33:50;15.55;;;9.82;;
35239;SDS011;21376;50.954;4.716;2022-08-30T06:36:18;13.95;;;9.57;;
35239;SDS011;21376;50.954;4.716;2022-08-30T06:38:51;11.50;;;8.98;;
35239;SDS011;21376;50.954;4.716;2022-08-30T06:43:51;14.13;;;9.82;;
35239;SDS011;21376;50.954;4.716;2022-08-30T06:46:21;13.15;;;9.57;;
35239;SDS011;21376;50.954;4.716;2022-08-30T06:48:51;19.38;;;10.40;;
35239;SDS011;21376;50.954;4.716;2022-08-30T06:51:29;13.13;;;9.50;;
35239;SDS011;21376;50.954;4.716;2022-08-30T06:53:59;14.43;;;10.23;;
35239;SDS011;21376;50.954;4.716;2022-08-30T07:01:26;16.98;;;9.57;;
35239;SDS011;21376;50.954;4.716;2022-08-30T07:03:57;14.90;;;8.70;;
35239;SDS011;21376;50.954;4.716;2022-08-30T07:06:28;13.23;;;8.73;;
35239;SDS011;21376;50.954;4.716;2022-08-30T07:09:27;12.15;;;8.40;;
35239;SDS011;21376;50.954;4.716;2022-08-30T07:14:43;14.55;;;9.02;;
35239;SDS011;21376;50.954;4.716;2022-08-30T07:17:11;16.27;;;9.45;;
35239;SDS011;21376;50.954;4.716;2022-08-30T07:20:05;13.70;;;7.97;;
35239;SDS011;21376;50.954;4.716;2022-08-30T07:22:32;12.95;;;8.55;;
35239;SDS011;21376;50.954;4.716;2022-08-30T07:24:59;12.63;;;8.65;;
35239;SDS011;21376;50.954;4.716;2022-08-30T07:27:26;14.27;;;8.30;;
35239;SDS011;21376;50.954;4.716;2022-08-30T07:29:55;15.50;;;8.68;;
35239;SDS011;21376;50.954;4.716;2022-08-30T07:32:33;13.05;;;7.68;;
35239;SDS011;21376;50.954;4.716;2022-08-30T07:37:45;14.10;;;8.52;;
35239;SDS011;21376;50.954;4.716;2022-08-30T07:42:44;15.38;;;7.32;;
35239;SDS011;21376;50.954;4.716;2022-08-30T07:45:17;8.05;;;6.80;;
35239;SDS011;21376;50.954;4.716;2022-08-30T07:47:44;10.80;;;6.88;;
35239;SDS011;21376;50.954;4.716;2022-08-30T07:50:13;11.63;;;6.85;;
35239;SDS011;21376;50.954;4.716;2022-08-30T07:52:46;9.75;;;7.10;;
35239;SDS011;21376;50.954;4.716;2022-08-30T07:55:14;9.15;;;6.30;;
35239;SDS011;21376;50.954;4.716;2022-08-30T07:57:40;8.60;;;6.70;;
35239;SDS011;21376;50.954;4.716;2022-08-30T08:00:07;12.55;;;6.57;;
35239;SDS011;21376;50.954;4.716;2022-08-30T08:02:45;7.43;;;5.90;;
35239;SDS011;21376;50.954;4.716;2022-08-30T08:05:12;11.15;;;5.97;;
35239;SDS011;21376;50.954;4.716;2022-08-30T08:07:41;7.45;;;5.70;;
35239;SDS011;21376;50.954;4.716;2022-08-30T08:10:13;9.90;;;5.45;;
35239;SDS011;21376;50.954;4.716;2022-08-30T08:12:42;9.73;;;6.03;;
35239;SDS011;21376;50.954;4.716;2022-08-30T08:15:14;11.32;;;5.88;;
35239;SDS011;21376;50.954;4.716;2022-08-30T08:17:40;14.95;;;5.95;;
35239;SDS011;21376;50.954;4.716;2022-08-30T08:20:17;8.63;;;6.05;;
35239;SDS011;21376;50.954;4.716;2022-08-30T08:22:49;7.75;;;5.85;;
35239;SDS011;21376;50.954;4.716;2022-08-30T08:25:20;8.55;;;5.32;;
35239;SDS011;21376;50.954;4.716;2022-08-30T08:27:49;8.75;;;5.40;;
35239;SDS011;21376;50.954;4.716;2022-08-30T08:30:19;12.13;;;5.18;;
35239;SDS011;21376;50.954;4.716;2022-08-30T08:32:53;8.18;;;4.90;;
35239;SDS011;21376;50.954;4.716;2022-08-30T08:35:30;8.63;;;4.95;;
35239;SDS011;21376;50.954;4.716;2022-08-30T08:37:57;8.48;;;4.80;;
35239;SDS011;21376;50.954;4.716;2022-08-30T08:40:27;10.70;;;5.35;;
35239;SDS011;21376;50.954;4.716;2022-08-30T08:48:49;6.25;;;4.45;;
35239;SDS011;21376;50.954;4.716;2022-08-30T08:51:20;10.60;;;4.85;;
35239;SDS011;21376;50.954;4.716;2022-08-30T08:54:18;8.40;;;4.72;;
35239;SDS011;21376;50.954;4.716;2022-08-30T08:57:09;7.75;;;4.47;;
35239;SDS011;21376;50.954;4.716;2022-08-30T09:02:18;6.70;;;4.30;;
35239;SDS011;21376;50.954;4.716;2022-08-30T09:04:57;7.75;;;4.50;;
35239;SDS011;21376;50.954;4.716;2022-08-30T09:07:26;8.57;;;4.80;;
35239;SDS011;21376;50.954;4.716;2022-08-30T09:12:29;6.50;;;4.72;;
35239;SDS011;21376;50.954;4.716;2022-08-30T09:20:37;7.80;;;4.15;;
35239;SDS011;21376;50.954;4.716;2022-08-30T09:28:20;9.60;;;4.57;;
35239;SDS011;21376;50.954;4.716;2022-08-30T09:31:01;9.68;;;4.22;;
35239;SDS011;21376;50.954;4.716;2022-08-30T09:33:30;9.50;;;3.97;;
35239;SDS011;21376;50.954;4.716;2022-08-30T09:36:11;10.10;;;3.90;;
35239;SDS011;21376;50.954;4.716;2022-08-30T09:38:45;8.60;;;4.70;;
35239;SDS011;21376;50.954;4.716;2022-08-30T09:41:38;7.55;;;3.78;;
35239;SDS011;21376;50.954;4.716;2022-08-30T09:44:20;11.35;;;3.90;;
35239;SDS011;21376;50.954;4.716;2022-08-30T09:49:45;7.18;;;3.90;;
35239;SDS011;21376;50.954;4.716;2022-08-30T09:55:01;6.55;;;4.10;;
35239;SDS011;21376;50.954;4.716;2022-08-30T10:00:15;7.82;;;3.47;;
35239;SDS011;21376;50.954;4.716;2022-08-30T10:02:58;7.70;;;3.40;;
35239;SDS011;21376;50.954;4.716;2022-08-30T10:22:52;6.55;;;3.60;;
35239;SDS011;21376;50.954;4.716;2022-08-30T10:29:42;5.88;;;3.70;;
35239;SDS011;21376;50.954;4.716;2022-08-30T10:35:13;9.65;;;3.50;;
35239;SDS011;21376;50.954;4.716;2022-08-30T10:37:54;8.23;;;3.27;;
35239;SDS011;21376;50.954;4.716;2022-08-30T10:40:32;7.05;;;3.65;;
35239;SDS011;21376;50.954;4.716;2022-08-30T10:43:36;5.65;;;3.45;;
35239;SDS011;21376;50.954;4.716;2022-08-30T10:46:23;5.97;;;3.67;;
35239;SDS011;21376;50.954;4.716;2022-08-30T10:49:01;8.30;;;3.00;;
35239;SDS011;21376;50.954;4.716;2022-08-30T10:51:35;9.73;;;3.50;;
35239;SDS011;21376;50.954;4.716;2022-08-30T10:54:16;7.80;;;2.95;;
35239;SDS011;21376;50.954;4.716;2022-08-30T10:56:49;8.68;;;3.47;;
35239;SDS011;21376;50.954;4.716;2022-08-30T10:59:20;7.63;;;3.00;;
35239;SDS011;21376;50.954;4.716;2022-08-30T11:01:59;8.30;;;3.33;;
35239;SDS011;21376;50.954;4.716;2022-08-30T11:14:43;9.50;;;3.55;;
35239;SDS011;21376;50.954;4.716;2022-08-30T11:17:25;5.32;;;2.95;;
35239;SDS011;21376;50.954;4.716;2022-08-30T11:26:13;5.78;;;2.97;;
35239;SDS011;21376;50.954;4.716;2022-08-30T11:47:56;9.27;;;3.53;;
35239;SDS011;21376;50.954;4.716;2022-08-30T11:56:21;8.20;;;2.78;;
35239;SDS011;21376;50.954;4.716;2022-08-30T12:04:44;12.18;;;3.65;;
35239;SDS011;21376;50.954;4.716;2022-08-30T12:19:45;8.90;;;3.20;;
35239;SDS011;21376;50.954;4.716;2022-08-30T12:22:15;5.07;;;2.78;;
35239;SDS011;21376;50.954;4.716;2022-08-30T12:24:49;6.38;;;2.65;;
35239;SDS011;21376;50.954;4.716;2022-08-30T12:30:13;8.65;;;2.80;;
35239;SDS011;21376;50.954;4.716;2022-08-30T12:32:51;8.13;;;3.20;;
35239;SDS011;21376;50.954;4.716;2022-08-30T12:35:23;7.20;;;3.47;;
35239;SDS011;21376;50.954;4.716;2022-08-30T12:37:57;4.55;;;2.80;;
35239;SDS011;21376;50.954;4.716;2022-08-30T12:40:29;7.97;;;3.47;;
35239;SDS011;21376;50.954;4.716;2022-08-30T12:43:02;6.88;;;2.55;;
35239;SDS011;21376;50.954;4.716;2022-08-30T12:45:36;6.22;;;2.88;;
35239;SDS011;21376;50.954;4.716;2022-08-30T12:48:08;6.93;;;2.70;;
35239;SDS011;21376;50.954;4.716;2022-08-30T12:50:48;11.73;;;3.25;;
35239;SDS011;21376;50.954;4.716;2022-08-30T12:55:58;8.70;;;2.53;;
35239;SDS011;21376;50.954;4.716;2022-08-30T13:01:17;4.60;;;2.53;;
35239;SDS011;21376;50.954;4.716;2022-08-30T13:06:54;7.13;;;2.65;;
35239;SDS011;21376;50.954;4.716;2022-08-30T13:12:08;8.80;;;2.22;;
35239;SDS011;21376;50.954;4.716;2022-08-30T13:14:48;6.80;;;2.60;;
35239;SDS011;21376;50.954;4.716;2022-08-30T13:17:27;5.53;;;2.72;;
35239;SDS011;21376;50.954;4.716;2022-08-30T13:20:01;5.28;;;2.50;;
35239;SDS011;21376;50.954;4.716;2022-08-30T13:23:01;13.35;;;3.22;;
35239;SDS011;21376;50.954;4.716;2022-08-30T13:25:32;8.85;;;3.17;;
35239;SDS011;21376;50.954;4.716;2022-08-30T13:27:59;8.52;;;2.72;;
35239;SDS011;21376;50.954;4.716;2022-08-30T13:30:28;8.45;;;2.53;;
35239;SDS011;21376;50.954;4.716;2022-08-30T13:32:57;10.57;;;2.45;;
35239;SDS011;21376;50.954;4.716;2022-08-30T13:35:24;11.45;;;3.15;;
35239;SDS011;21376;50.954;4.716;2022-08-30T13:37:49;9.00;;;2.58;;
35239;SDS011;21376;50.954;4.716;2022-08-30T13:40:15;8.27;;;2.75;;
35239;SDS011;21376;50.954;4.716;2022-08-30T13:42:43;9.50;;;2.80;;
35239;SDS011;21376;50.954;4.716;2022-08-30T13:45:15;7.18;;;2.30;;
35239;SDS011;21376;50.954;4.716;2022-08-30T13:47:43;7.93;;;2.63;;
35239;SDS011;21376;50.954;4.716;2022-08-30T13:50:11;4.65;;;2.80;;
35239;SDS011;21376;50.954;4.716;2022-08-30T13:52:40;5.20;;;2.58;;
35239;SDS011;21376;50.954;4.716;2022-08-30T13:55:06;9.38;;;2.85;;
35239;SDS011;21376;50.954;4.716;2022-08-30T13:57:34;7.20;;;2.90;;
35239;SDS011;21376;50.954;4.716;2022-08-30T14:00:00;6.70;;;2.33;;
35239;SDS011;21376;50.954;4.716;2022-08-30T14:02:29;6.30;;;2.33;;
35239;SDS011;21376;50.954;4.716;2022-08-30T14:04:57;6.70;;;2.72;;
35239;SDS011;21376;50.954;4.716;2022-08-30T14:07:29;6.97;;;2.30;;
35239;SDS011;21376;50.954;4.716;2022-08-30T14:09:56;3.78;;;2.10;;
35239;SDS011;21376;50.954;4.716;2022-08-30T14:14:51;4.32;;;2.08;;
35239;SDS011;21376;50.954;4.716;2022-08-30T14:19:49;10.07;;;2.55;;
35239;SDS011;21376;50.954;4.716;2022-08-30T14:24:44;13.95;;;2.40;;
35239;SDS011;21376;50.954;4.716;2022-08-30T14:27:11;5.90;;;2.60;;
35239;SDS011;21376;50.954;4.716;2022-08-30T14:29:40;6.20;;;2.20;;
35239;SDS011;21376;50.954;4.716;2022-08-30T14:32:07;6.82;;;2.45;;
35239;SDS011;21376;50.954;4.716;2022-08-30T14:34:33;6.32;;;2.35;;
35239;SDS011;21376;50.954;4.716;2022-08-30T14:37:01;6.97;;;2.25;;
35239;SDS011;21376;50.954;4.716;2022-08-30T14:39:33;4.43;;;2.72;;
35239;SDS011;21376;50.954;4.716;2022-08-30T14:42:02;7.82;;;2.30;;
35239;SDS011;21376;50.954;4.716;2022-08-30T14:44:29;8.07;;;2.40;;
35239;SDS011;21376;50.954;4.716;2022-08-30T14:46:55;9.85;;;2.75;;
35239;SDS011;21376;50.954;4.716;2022-08-30T14:49:21;9.27;;;2.50;;
35239;SDS011;21376;50.954;4.716;2022-08-30T14:51:50;4.95;;;1.88;;
35239;SDS011;21376;50.954;4.716;2022-08-30T14:59:15;5.65;;;2.25;;
35239;SDS011;21376;50.954;4.716;2022-08-30T15:01:45;5.28;;;2.22;;
35239;SDS011;21376;50.954;4.716;2022-08-30T15:12:02;9.35;;;2.60;;
35239;SDS011;21376;50.954;4.716;2022-08-30T15:14:32;7.10;;;2.10;;
35239;SDS011;21376;50.954;4.716;2022-08-30T15:17:01;4.85;;;1.90;;
35239;SDS011;21376;50.954;4.716;2022-08-30T15:19:31;6.65;;;1.95;;
35239;SDS011;21376;50.954;4.716;2022-08-30T15:21:59;7.53;;;1.90;;
35239;SDS011;21376;50.954;4.716;2022-08-30T15:24:28;8.73;;;2.42;;
35239;SDS011;21376;50.954;4.716;2022-08-30T15:26:58;5.60;;;2.15;;
35239;SDS011;21376;50.954;4.716;2022-08-30T15:29:41;5.68;;;2.20;;
35239;SDS011;21376;50.954;4.716;2022-08-30T15:34:45;7.97;;;2.47;;
35239;SDS011;21376;50.954;4.716;2022-08-30T15:37:25;5.13;;;1.98;;
35239;SDS011;21376;50.954;4.716;2022-08-30T15:46:19;4.20;;;2.08;;
35239;SDS011;21376;50.954;4.716;2022-08-30T15:51:48;5.57;;;2.17;;
35239;SDS011;21376;50.954;4.716;2022-08-30T15:54:19;8.85;;;2.30;;
35239;SDS011;21376;50.954;4.716;2022-08-30T15:56:46;5.13;;;2.08;;
35239;SDS011;21376;50.954;4.716;2022-08-30T15:59:12;4.13;;;2.00;;
35239;SDS011;21376;50.954;4.716;2022-08-30T16:04:48;5.32;;;2.00;;
35239;SDS011;21376;50.954;4.716;2022-08-30T16:07:20;8.05;;;2.30;;
35239;SDS011;21376;50.954;4.716;2022-08-30T16:12:14;5.03;;;1.80;;
35239;SDS011;21376;50.954;4.716;2022-08-30T16:19:51;4.78;;;2.00;;
35239;SDS011;21376;50.954;4.716;2022-08-30T16:25:11;8.13;;;2.00;;
35239;SDS011;21376;50.954;4.716;2022-08-30T16:27:37;9.88;;;2.30;;
35239;SDS011;21376;50.954;4.716;2022-08-30T16:30:18;6.15;;;2.17;;
35239;SDS011;21376;50.954;4.716;2022-08-30T16:35:16;3.00;;;2.00;;
35239;SDS011;21376;50.954;4.716;2022-08-30T16:37:55;5.32;;;2.05;;
35239;SDS011;21376;50.954;4.716;2022-08-30T16:40:24;4.22;;;2.15;;
35239;SDS011;21376;50.954;4.716;2022-08-30T16:42:50;5.03;;;2.00;;
35239;SDS011;21376;50.954;4.716;2022-08-30T16:45:19;7.57;;;2.33;;
35239;SDS011;21376;50.954;4.716;2022-08-30T16:47:51;4.47;;;1.88;;
35239;SDS011;21376;50.954;4.716;2022-08-30T16:50:20;10.02;;;2.08;;
35239;SDS011;21376;50.954;4.716;2022-08-30T16:52:53;5.95;;;1.98;;
35239;SDS011;21376;50.954;4.716;2022-08-30T16:55:19;4.97;;;1.88;;
35239;SDS011;21376;50.954;4.716;2022-08-30T16:57:48;5.63;;;2.00;;
35239;SDS011;21376;50.954;4.716;2022-08-30T17:00:28;6.07;;;1.90;;
35239;SDS011;21376;50.954;4.716;2022-08-30T17:05:25;7.88;;;1.90;;
35239;SDS011;21376;50.954;4.716;2022-08-30T17:07:57;4.60;;;1.90;;
35239;SDS011;21376;50.954;4.716;2022-08-30T17:10:26;5.85;;;2.20;;
35239;SDS011;21376;50.954;4.716;2022-08-30T17:12:54;7.07;;;2.00;;
35239;SDS011;21376;50.954;4.716;2022-08-30T17:15:20;7.28;;;2.10;;
35239;SDS011;21376;50.954;4.716;2022-08-30T17:18:00;3.97;;;1.70;;
35239;SDS011;21376;50.954;4.716;2022-08-30T17:20:32;8.18;;;1.80;;
35239;SDS011;21376;50.954;4.716;2022-08-30T17:25:31;2.72;;;1.88;;
35239;SDS011;21376;50.954;4.716;2022-08-30T17:28:00;6.75;;;1.90;;
35239;SDS011;21376;50.954;4.716;2022-08-30T17:30:29;7.13;;;2.90;;
35239;SDS011;21376;50.954;4.716;2022-08-30T17:33:01;6.18;;;2.72;;
35239;SDS011;21376;50.954;4.716;2022-08-30T17:38:49;10.70;;;2.50;;
35239;SDS011;21376;50.954;4.716;2022-08-30T17:41:21;5.40;;;2.10;;
35239;SDS011;21376;50.954;4.716;2022-08-30T17:43:54;8.23;;;2.10;;
35239;SDS011;21376;50.954;4.716;2022-08-30T17:46:20;7.28;;;2.10;;
35239;SDS011;21376;50.954;4.716;2022-08-30T17:51:18;3.67;;;1.80;;
35239;SDS011;21376;50.954;4.716;2022-08-30T17:53:48;4.88;;;2.00;;
35239;SDS011;21376;50.954;4.716;2022-08-30T17:56:17;7.53;;;1.98;;
35239;SDS011;21376;50.954;4.716;2022-08-30T17:58:46;4.28;;;1.80;;
35239;SDS011;21376;50.954;4.716;2022-08-30T18:01:25;6.28;;;2.67;;
35239;SDS011;21376;50.954;4.716;2022-08-30T18:03:53;5.05;;;2.15;;
35239;SDS011;21376;50.954;4.716;2022-08-30T18:06:20;5.32;;;1.92;;
35239;SDS011;21376;50.954;4.716;2022-08-30T18:08:47;7.95;;;1.83;;
35239;SDS011;21376;50.954;4.716;2022-08-30T18:11:15;5.60;;;2.10;;
35239;SDS011;21376;50.954;4.716;2022-08-30T18:13:43;5.35;;;1.83;;
35239;SDS011;21376;50.954;4.716;2022-08-30T18:16:09;8.00;;;2.13;;
35239;SDS011;21376;50.954;4.716;2022-08-30T18:18:38;7.88;;;2.00;;
35239;SDS011;21376;50.954;4.716;2022-08-30T18:21:10;8.20;;;2.22;;
35239;SDS011;21376;50.954;4.716;2022-08-30T18:26:12;5.43;;;2.38;;
35239;SDS011;21376;50.954;4.716;2022-08-30T18:28:39;7.80;;;1.80;;
35239;SDS011;21376;50.954;4.716;2022-08-30T18:31:08;7.25;;;2.03;;
35239;SDS011;21376;50.954;4.716;2022-08-30T18:36:04;10.50;;;1.90;;
35239;SDS011;21376;50.954;4.716;2022-08-30T18:38:31;7.80;;;1.60;;
35239;SDS011;21376;50.954;4.716;2022-08-30T18:41:01;4.28;;;1.90;;
35239;SDS011;21376;50.954;4.716;2022-08-30T18:43:30;7.35;;;1.77;;
35239;SDS011;21376;50.954;4.716;2022-08-30T18:48:27;8.13;;;2.00;;
35239;SDS011;21376;50.954;4.716;2022-08-30T18:50:57;4.97;;;1.80;;
35239;SDS011;21376;50.954;4.716;2022-08-30T18:53:30;2.97;;;1.67;;
35239;SDS011;21376;50.954;4.716;2022-08-30T18:58:26;4.05;;;1.58;;
35239;SDS011;21376;50.954;4.716;2022-08-30T19:01:02;5.32;;;2.10;;
35239;SDS011;21376;50.954;4.716;2022-08-30T19:03:30;10.32;;;1.73;;
35239;SDS011;21376;50.954;4.716;2022-08-30T19:06:27;10.45;;;2.20;;
35239;SDS011;21376;50.954;4.716;2022-08-30T19:08:53;7.65;;;2.28;;
35239;SDS011;21376;50.954;4.716;2022-08-30T19:11:20;8.00;;;2.22;;
35239;SDS011;21376;50.954;4.716;2022-08-30T19:13:46;7.70;;;2.00;;
35239;SDS011;21376;50.954;4.716;2022-08-30T19:16:12;6.70;;;2.13;;
35239;SDS011;21376;50.954;4.716;2022-08-30T19:18:41;8.77;;;1.60;;
35239;SDS011;21376;50.954;4.716;2022-08-30T19:21:08;3.80;;;1.73;;
35239;SDS011;21376;50.954;4.716;2022-08-30T19:23:39;4.65;;;1.65;;
35239;SDS011;21376;50.954;4.716;2022-08-30T19:26:05;2.63;;;1.70;;
35239;SDS011;21376;50.954;4.716;2022-08-30T19:28:33;4.57;;;1.77;;
35239;SDS011;21376;50.954;4.716;2022-08-30T19:31:02;10.43;;;2.28;;
35239;SDS011;21376;50.954;4.716;2022-08-30T19:33:31;4.85;;;1.95;;
35239;SDS011;21376;50.954;4.716;2022-08-30T19:35:57;7.63;;;1.95;;
35239;SDS011;21376;50.954;4.716;2022-08-30T19:38:24;7.38;;;2.05;;
35239;SDS011;21376;50.954;4.716;2022-08-30T19:40:55;12.73;;;2.15;;
35239;SDS011;21376;50.954;4.716;2022-08-30T19:43:26;4.75;;;1.80;;
35239;SDS011;21376;50.954;4.716;2022-08-30T19:45:57;17.13;;;2.75;;
35239;SDS011;21376;50.954;4.716;2022-08-30T19:48:31;8.98;;;2.20;;
35239;SDS011;21376;50.954;4.716;2022-08-30T19:50:57;9.87;;;2.13;;
35239;SDS011;21376;50.954;4.716;2022-08-30T19:53:25;6.60;;;1.90;;
35239;SDS011;21376;50.954;4.716;2022-08-30T19:55:54;6.40;;;1.73;;
35239;SDS011;21376;50.954;4.716;2022-08-30T19:58:21;5.75;;;1.70;;
35239;SDS011;21376;50.954;4.716;2022-08-30T20:03:18;5.00;;;2.13;;
35239;SDS011;21376;50.954;4.716;2022-08-30T20:05:50;26.67;;;2.67;;
35239;SDS011;21376;50.954;4.716;2022-08-30T20:10:45;7.30;;;2.03;;
35239;SDS011;21376;50.954;4.716;2022-08-30T20:13:14;7.95;;;2.20;;
35239;SDS011;21376;50.954;4.716;2022-08-30T20:15:40;10.23;;;2.35;;
35239;SDS011;21376;50.954;4.716;2022-08-30T20:18:08;19.30;;;2.78;;